Time;durP1;ratioP1;P1;durP2;ratioP2;P2;SDS_P1;SDS_P2;PMS_P1;PMS_P2;Temp;Humidity;BMP_temperature;BMP_pressure;BME280_temperature;BME280_humidity;BME280_pressure;Samples;Min_cycle;Max_cycle;Signal;HPM_P1;HPM_P2
2022/10/13 00:01:23;;;;;;;23.02;17.42;;;9.90;99.90;;;;;;4954888;28;20110;-93
2022/10/13 00:03:49;;;;;;;25.20;16.95;;;9.90;99.90;;;;;;4940307;29;20070;-94
2022/10/13 00:06:18;;;;;;;23.05;16.88;;;9.90;99.90;;;;;;4952254;28;20039;-94
2022/10/13 00:08:44;;;;;;;23.55;17.65;;;9.90;99.90;;;;;;4937574;29;20114;-93
2022/10/13 00:11:25;;;;;;;21.52;16.90;;;9.90;99.90;;;;;;4981993;28;20069;-93
2022/10/13 00:13:54;;;;;;;26.67;18.65;;;9.90;99.90;;;;;;4962895;28;20071;-93
2022/10/13 00:16:21;;;;;;;22.70;17.20;;;9.90;99.90;;;;;;4968694;28;20063;-93
2022/10/13 00:18:47;;;;;;;24.02;17.27;;;9.90;99.90;;;;;;4971914;28;20031;-94
2022/10/13 00:21:17;;;;;;;24.80;18.13;;;9.90;99.90;;;;;;4953929;28;20028;-93
2022/10/13 00:23:42;;;;;;;22.17;17.73;;;9.80;99.90;;;;;;4943130;29;20050;-93
2022/10/13 00:26:10;;;;;;;24.63;17.52;;;9.80;99.90;;;;;;4947141;28;20485;-93
2022/10/13 00:28:37;;;;;;;25.42;18.15;;;9.90;99.90;;;;;;4942679;28;20035;-94
2022/10/13 00:31:03;;;;;;;25.00;18.17;;;9.80;99.90;;;;;;4940313;28;20039;-93
2022/10/13 00:33:28;;;;;;;23.73;18.05;;;9.80;99.90;;;;;;4923813;29;20040;-94
2022/10/13 00:35:54;;;;;;;22.70;17.20;;;9.90;99.90;;;;;;4941673;28;20493;-94
2022/10/13 00:38:22;;;;;;;22.92;17.60;;;9.90;99.90;;;;;;4923979;29;20039;-93
2022/10/13 00:40:53;;;;;;;24.08;18.05;;;9.90;99.90;;;;;;4945314;28;20043;-94
2022/10/13 00:43:47;;;;;;;24.15;18.23;;;9.90;99.90;;;;;;4921501;29;20039;-93
2022/10/13 00:46:13;;;;;;;27.70;17.83;;;9.80;99.90;;;;;;4944981;28;20054;-93
2022/10/13 00:48:40;;;;;;;27.23;19.27;;;9.90;99.90;;;;;;4942648;28;20036;-93
2022/10/13 00:51:07;;;;;;;25.15;18.50;;;9.80;99.90;;;;;;4941689;28;20043;-94
2022/10/13 00:53:35;;;;;;;22.77;18.17;;;9.80;99.90;;;;;;4940896;29;20043;-94
2022/10/13 00:56:03;;;;;;;24.30;18.55;;;9.80;99.90;;;;;;4946140;28;20043;-93
2022/10/13 00:58:30;;;;;;;23.80;17.83;;;9.80;99.90;;;;;;4937852;29;20053;-94
2022/10/13 01:00:57;;;;;;;26.88;18.67;;;9.80;99.90;;;;;;4946534;29;20051;-93
2022/10/13 01:03:25;;;;;;;25.65;18.15;;;9.80;99.90;;;;;;4945235;29;20078;-93
2022/10/13 01:05:54;;;;;;;24.42;17.70;;;9.80;99.90;;;;;;4939574;28;20043;-93
2022/10/13 01:08:20;;;;;;;24.63;18.83;;;9.90;99.90;;;;;;4959588;28;20042;-94
2022/10/13 01:11:13;;;;;;;24.83;19.23;;;9.90;99.90;;;;;;4923535;29;20046;-94
2022/10/13 01:13:44;;;;;;;27.15;19.13;;;9.90;99.90;;;;;;4946380;28;20046;-94
2022/10/13 01:16:29;;;;;;;23.05;18.88;;;9.80;99.90;;;;;;4930771;29;20158;-94
2022/10/13 01:19:26;;;;;;;25.85;18.77;;;9.80;99.90;;;;;;4943525;28;20035;-93
2022/10/13 01:22:33;;;;;;;26.38;19.88;;;9.80;99.90;;;;;;4929539;29;20048;-94
2022/10/13 01:25:18;;;;;;;23.95;18.35;;;9.80;99.90;;;;;;4958103;29;20051;-94
2022/10/13 01:28:06;;;;;;;26.10;18.30;;;9.80;99.90;;;;;;4960412;28;20123;-94
2022/10/13 01:30:36;;;;;;;25.50;18.30;;;9.80;99.90;;;;;;4951536;29;20047;-94
2022/10/13 01:33:13;;;;;;;25.25;18.55;;;9.80;99.90;;;;;;4951066;28;20098;-93
2022/10/13 01:36:17;;;;;;;26.73;19.08;;;9.80;99.90;;;;;;4946150;28;20042;-93
2022/10/13 01:39:06;;;;;;;24.17;19.17;;;9.80;99.90;;;;;;4950489;29;20051;-94
2022/10/13 01:41:38;;;;;;;28.02;19.20;;;9.80;99.90;;;;;;4948726;28;20518;-93
2022/10/13 01:44:15;;;;;;;24.73;18.85;;;9.80;99.90;;;;;;4951656;28;20051;-94
2022/10/13 01:46:42;;;;;;;26.45;20.08;;;9.80;99.90;;;;;;4944028;28;20043;-92
2022/10/13 01:49:14;;;;;;;24.33;19.02;;;9.80;99.90;;;;;;4944987;28;20055;-93
2022/10/13 01:51:40;;;;;;;24.67;17.98;;;9.80;99.90;;;;;;4941961;28;20099;-94
2022/10/13 01:54:06;;;;;;;23.48;18.52;;;9.80;99.90;;;;;;4945374;28;20047;-93
2022/10/13 01:56:32;;;;;;;25.83;19.65;;;9.80;99.90;;;;;;4947543;28;20048;-93
2022/10/13 01:59:06;;;;;;;26.83;18.45;;;9.70;99.90;;;;;;4947874;28;20073;-93
2022/10/13 02:01:53;;;;;;;25.95;19.02;;;9.70;99.90;;;;;;4928928;28;20059;-94
2022/10/13 02:04:49;;;;;;;24.15;19.38;;;9.80;99.90;;;;;;4943987;28;20035;-93
2022/10/13 02:07:53;;;;;;;25.55;19.48;;;9.80;99.90;;;;;;4943097;29;20048;-92
2022/10/13 02:10:39;;;;;;;23.77;14.75;;;9.70;99.90;;;;;;4896759;29;20053;-94
2022/10/13 02:13:06;;;;;;;26.10;18.65;;;9.70;99.90;;;;;;4894723;29;20106;-92
2022/10/13 02:15:41;;;;;;;23.13;18.48;;;9.80;99.90;;;;;;4897523;29;20078;-94
2022/10/13 02:18:09;;;;;;;25.13;19.30;;;9.80;99.90;;;;;;4904439;29;20052;-93
2022/10/13 02:20:35;;;;;;;25.50;15.68;;;9.80;99.90;;;;;;4917749;29;20056;-94
2022/10/13 02:23:09;;;;;;;23.80;19.17;;;9.80;99.90;;;;;;4896353;29;20036;-93
2022/10/13 02:25:36;;;;;;;25.65;18.67;;;9.80;99.90;;;;;;4874412;29;20052;-93
2022/10/13 02:28:02;;;;;;;26.17;19.23;;;9.90;99.90;;;;;;4891282;29;20511;-92
2022/10/13 02:30:29;;;;;;;25.10;20.00;;;9.90;99.90;;;;;;4908878;29;20127;-94
2022/10/13 02:32:55;;;;;;;26.52;18.95;;;9.90;99.90;;;;;;4901349;29;20151;-93
2022/10/13 02:35:20;;;;;;;23.73;19.63;;;9.90;99.90;;;;;;4881342;29;20040;-94
2022/10/13 02:37:46;;;;;;;26.40;19.27;;;9.90;99.90;;;;;;4895180;29;20040;-94
2022/10/13 02:40:12;;;;;;;26.58;19.33;;;10.00;99.90;;;;;;4887106;29;20473;-94
2022/10/13 02:42:38;;;;;;;24.73;19.38;;;10.00;99.90;;;;;;4871858;29;20051;-93
2022/10/13 02:45:04;;;;;;;26.00;18.95;;;10.00;99.90;;;;;;4899777;28;20055;-94
2022/10/13 02:47:30;;;;;;;24.55;19.75;;;10.00;99.90;;;;;;4952022;29;20141;-94
2022/10/13 02:49:56;;;;;;;23.55;19.17;;;10.00;99.90;;;;;;4948890;28;20103;-92
2022/10/13 02:52:21;;;;;;;25.40;18.48;;;10.00;99.90;;;;;;4944205;28;20381;-94
2022/10/13 02:54:47;;;;;;;22.25;18.15;;;10.10;99.90;;;;;;4931992;29;20031;-94
2022/10/13 02:57:13;;;;;;;22.75;18.48;;;10.10;99.90;;;;;;4943378;29;20039;-94
2022/10/13 02:59:39;;;;;;;24.88;18.77;;;10.10;99.90;;;;;;4949440;29;20192;-93
2022/10/13 03:02:04;;;;;;;25.52;19.60;;;10.10;99.90;;;;;;4943735;28;20058;-94
2022/10/13 03:04:30;;;;;;;29.08;19.58;;;10.10;99.90;;;;;;4942346;29;20039;-94
2022/10/13 03:06:56;;;;;;;22.77;18.90;;;10.10;99.90;;;;;;4931423;28;20511;-93
2022/10/13 03:09:21;;;;;;;25.00;18.55;;;10.20;99.90;;;;;;4934312;29;20054;-94
2022/10/13 03:11:47;;;;;;;24.08;19.25;;;10.20;99.90;;;;;;4949471;28;20023;-93
2022/10/13 03:14:13;;;;;;;24.17;18.85;;;10.20;99.90;;;;;;4948820;28;20492;-94
2022/10/13 03:16:38;;;;;;;24.17;18.83;;;10.20;99.90;;;;;;4935037;29;20492;-94
2022/10/13 03:19:04;;;;;;;25.58;19.85;;;10.20;99.90;;;;;;4944559;28;20110;-93
2022/10/13 03:21:30;;;;;;;25.40;20.02;;;10.10;99.90;;;;;;4937013;28;20045;-93
2022/10/13 03:23:55;;;;;;;24.35;19.98;;;10.20;99.90;;;;;;4951304;29;20126;-94
2022/10/13 03:26:21;;;;;;;25.73;19.98;;;10.10;99.90;;;;;;4949599;29;20514;-93
2022/10/13 03:28:49;;;;;;;26.23;19.90;;;10.10;99.90;;;;;;4952029;28;20039;-95
2022/10/13 03:31:15;;;;;;;26.30;20.02;;;10.20;99.90;;;;;;4962248;28;20068;-93
2022/10/13 03:33:40;;;;;;;25.85;20.50;;;10.10;99.90;;;;;;4943110;28;20048;-93
2022/10/13 03:36:06;;;;;;;26.10;20.10;;;10.20;99.90;;;;;;4927212;29;20126;-92
2022/10/13 03:38:33;;;;;;;25.42;19.67;;;10.20;99.90;;;;;;4948749;29;20066;-93
2022/10/13 03:41:07;;;;;;;23.67;19.15;;;10.20;99.90;;;;;;4945883;28;20408;-94
2022/10/13 03:43:34;;;;;;;26.77;20.52;;;10.30;99.90;;;;;;4938859;29;20052;-93
2022/10/13 03:46:01;;;;;;;27.10;20.52;;;10.30;99.90;;;;;;4952027;29;20035;-94
2022/10/13 03:48:27;;;;;;;26.05;20.38;;;10.30;99.90;;;;;;4927917;29;20066;-95
2022/10/13 03:50:53;;;;;;;27.00;20.92;;;10.20;99.90;;;;;;4953886;29;20091;-96
2022/10/13 03:53:19;;;;;;;26.27;21.35;;;10.30;99.90;;;;;;4938654;29;20047;-96
2022/10/13 03:55:53;;;;;;;27.23;21.55;;;10.20;99.90;;;;;;4933044;29;20120;-96
2022/10/13 03:58:19;;;;;;;27.60;21.42;;;10.30;99.90;;;;;;4959237;29;20039;-94
2022/10/13 04:00:45;;;;;;;25.90;20.92;;;10.30;99.90;;;;;;4942071;29;20035;-94
2022/10/13 04:03:11;;;;;;;32.72;22.58;;;10.30;99.90;;;;;;4950503;28;20062;-93
2022/10/13 04:05:36;;;;;;;32.05;23.08;;;10.30;99.90;;;;;;4954672;28;20043;-92
2022/10/13 04:08:03;;;;;;;27.08;21.67;;;10.30;99.90;;;;;;4947796;28;20051;-92
2022/10/13 04:10:28;;;;;;;27.60;21.27;;;10.30;99.90;;;;;;4952953;29;20090;-92
2022/10/13 04:12:54;;;;;;;26.77;22.27;;;10.30;99.90;;;;;;4933543;29;20043;-90
2022/10/13 04:15:20;;;;;;;29.58;22.60;;;10.30;99.90;;;;;;4950348;28;20057;-90
2022/10/13 04:17:46;;;;;;;31.58;23.27;;;10.30;99.90;;;;;;4945199;28;20043;-89
2022/10/13 04:20:11;;;;;;;29.85;23.15;;;10.40;99.90;;;;;;4939559;28;20099;-89
2022/10/13 04:22:37;;;;;;;28.33;23.20;;;10.30;99.90;;;;;;4940992;28;20382;-89
2022/10/13 04:25:04;;;;;;;26.00;21.10;;;10.40;99.90;;;;;;4945378;29;20588;-89
2022/10/13 04:27:30;;;;;;;28.92;23.73;;;10.40;99.90;;;;;;4947431;28;20035;-90
2022/10/13 04:29:56;;;;;;;30.58;23.75;;;10.40;99.90;;;;;;4950651;28;20050;-89
2022/10/13 04:32:21;;;;;;;32.08;25.35;;;10.30;99.90;;;;;;4943800;28;20102;-88
2022/10/13 04:34:47;;;;;;;31.58;24.88;;;10.40;99.90;;;;;;4941529;29;20035;-89
2022/10/13 04:37:13;;;;;;;34.83;27.38;;;10.30;99.90;;;;;;4944083;29;20047;-88
2022/10/13 04:39:39;;;;;;;31.25;25.25;;;10.40;99.90;;;;;;4940200;28;20036;-89
2022/10/13 04:42:05;;;;;;;33.97;25.77;;;10.40;99.90;;;;;;4941039;28;20405;-89
2022/10/13 04:44:30;;;;;;;35.22;26.63;;;10.40;99.90;;;;;;4945372;29;20035;-88
2022/10/13 04:46:57;;;;;;;30.65;25.67;;;10.40;99.90;;;;;;4941286;28;20046;-88
2022/10/13 04:49:23;;;;;;;34.25;26.80;;;10.40;99.90;;;;;;4924225;29;20043;-88
2022/10/13 04:51:49;;;;;;;33.90;26.42;;;10.40;99.90;;;;;;4940399;28;20047;-89
2022/10/13 04:54:15;;;;;;;36.00;27.50;;;10.40;99.90;;;;;;4939635;28;20062;-88
2022/10/13 04:56:43;;;;;;;31.92;25.10;;;10.50;99.90;;;;;;4941900;28;20469;-88
2022/10/13 04:59:09;;;;;;;38.20;28.05;;;10.40;99.90;;;;;;4941347;28;20043;-88
2022/10/13 05:01:35;;;;;;;32.83;27.10;;;10.40;99.90;;;;;;4945500;28;20400;-89
2022/10/13 05:04:02;;;;;;;33.58;26.55;;;10.40;99.90;;;;;;4943032;28;20043;-89
2022/10/13 05:06:32;;;;;;;33.42;25.95;;;10.50;99.90;;;;;;4923628;29;20134;-89
2022/10/13 05:08:58;;;;;;;34.60;27.27;;;10.50;99.90;;;;;;4929918;29;20051;-88
2022/10/13 05:11:26;;;;;;;30.88;26.00;;;10.30;99.90;;;;;;4935967;28;20118;-89
2022/10/13 05:13:52;;;;;;;38.40;27.83;;;10.40;99.90;;;;;;4940153;28;20043;-89
2022/10/13 05:16:19;;;;;;;30.95;26.15;;;10.40;99.90;;;;;;4942343;28;20048;-89
2022/10/13 05:18:46;;;;;;;33.13;25.88;;;10.40;99.90;;;;;;4940541;29;20063;-88
2022/10/13 05:21:23;;;;;;;30.95;21.58;;;10.50;99.90;;;;;;4940803;29;20039;-88
2022/10/13 05:23:52;;;;;;;34.40;26.95;;;10.40;99.90;;;;;;4932793;28;20051;-89
2022/10/13 05:26:18;;;;;;;34.28;27.23;;;10.40;99.90;;;;;;4942618;29;20039;-89
2022/10/13 05:28:44;;;;;;;32.85;25.90;;;10.50;99.90;;;;;;4933093;29;20461;-89
2022/10/13 05:31:13;;;;;;;31.80;27.52;;;10.50;99.90;;;;;;4927386;28;20047;-89
2022/10/13 05:33:39;;;;;;;31.38;25.25;;;10.40;99.90;;;;;;4940678;28;20474;-88
2022/10/13 05:36:08;;;;;;;38.67;30.13;;;10.40;99.90;;;;;;4943083;29;20047;-89
2022/10/13 05:38:33;;;;;;;32.72;25.95;;;10.50;99.90;;;;;;4942892;28;20478;-89
2022/10/13 05:41:08;;;;;;;33.13;26.20;;;10.50;99.90;;;;;;4946842;28;20145;-88
2022/10/13 05:43:36;;;;;;;31.20;25.08;;;10.40;99.90;;;;;;4952942;28;20079;-88
2022/10/13 05:46:02;;;;;;;32.30;25.27;;;10.40;99.90;;;;;;4944450;28;20054;-89
2022/10/13 05:48:30;;;;;;;32.55;25.90;;;10.50;99.90;;;;;;4946800;28;20428;-89
2022/10/13 05:50:59;;;;;;;33.10;26.25;;;10.50;99.90;;;;;;4937769;29;20108;-88
2022/10/13 05:53:28;;;;;;;34.83;28.48;;;10.50;99.90;;;;;;4946564;28;20178;-89
2022/10/13 05:55:56;;;;;;;31.08;25.63;;;10.40;99.90;;;;;;4930221;29;20058;-88
2022/10/13 05:58:23;;;;;;;32.17;25.05;;;10.50;99.90;;;;;;4935311;28;20039;-88
2022/10/13 06:00:49;;;;;;;30.38;24.77;;;10.50;99.90;;;;;;4939221;28;20044;-88
2022/10/13 06:03:19;;;;;;;30.90;24.52;;;10.50;99.90;;;;;;4942326;28;20484;-88
2022/10/13 06:05:48;;;;;;;29.10;23.58;;;10.50;99.90;;;;;;4934874;29;20392;-88
2022/10/13 06:08:14;;;;;;;31.17;24.65;;;10.50;99.90;;;;;;4935759;29;20534;-87
2022/10/13 06:10:41;;;;;;;34.45;25.80;;;10.50;99.90;;;;;;4938200;29;20067;-88
2022/10/13 06:13:08;;;;;;;34.80;26.17;;;10.60;99.90;;;;;;4940183;28;20416;-88
2022/10/13 06:15:34;;;;;;;30.35;26.00;;;10.50;99.90;;;;;;4946215;28;20056;-88
2022/10/13 06:17:59;;;;;;;31.58;26.13;;;10.60;99.90;;;;;;4938851;28;20137;-87
2022/10/13 06:20:26;;;;;;;31.15;25.67;;;10.60;99.90;;;;;;4933487;29;20047;-89
2022/10/13 06:22:55;;;;;;;38.53;28.33;;;10.60;99.90;;;;;;4943519;28;20050;-88
2022/10/13 06:25:22;;;;;;;32.40;24.95;;;10.60;99.90;;;;;;4946220;28;20062;-89
2022/10/13 06:27:47;;;;;;;31.38;25.75;;;10.60;99.90;;;;;;4945577;28;20038;-89
2022/10/13 06:30:13;;;;;;;33.05;25.95;;;10.60;99.90;;;;;;4938991;28;20042;-89
2022/10/13 06:32:39;;;;;;;29.55;24.60;;;10.60;99.90;;;;;;4944386;28;20051;-91
2022/10/13 06:35:05;;;;;;;30.00;24.50;;;10.60;99.90;;;;;;4944445;28;20926;-91
2022/10/13 06:37:31;;;;;;;31.52;24.77;;;10.60;99.90;;;;;;4957311;28;20097;-91
2022/10/13 06:39:56;;;;;;;29.42;25.48;;;10.60;99.90;;;;;;4950531;28;20488;-89
2022/10/13 06:42:22;;;;;;;31.17;25.35;;;10.70;99.90;;;;;;4943926;28;20341;-91
2022/10/13 06:44:48;;;;;;;30.30;23.83;;;10.60;99.90;;;;;;4947458;29;20039;-91
2022/10/13 06:47:13;;;;;;;32.55;26.23;;;10.60;99.90;;;;;;4946662;28;20042;-90
2022/10/13 06:49:39;;;;;;;31.90;25.60;;;10.70;99.90;;;;;;4939336;28;20122;-90
2022/10/13 06:52:05;;;;;;;31.13;25.58;;;10.70;99.90;;;;;;4945393;28;20111;-90
2022/10/13 06:54:30;;;;;;;30.67;25.17;;;10.70;99.90;;;;;;4938596;28;20310;-90
2022/10/13 06:56:56;;;;;;;32.95;26.20;;;10.70;99.90;;;;;;4935853;29;20931;-90
2022/10/13 06:59:22;;;;;;;32.50;24.85;;;10.70;99.90;;;;;;4935430;29;20050;-90
2022/10/13 07:01:48;;;;;;;29.55;25.17;;;10.80;99.90;;;;;;4939482;28;20036;-89
2022/10/13 07:04:14;;;;;;;33.78;25.17;;;10.80;99.90;;;;;;4951252;28;20047;-89
2022/10/13 07:06:40;;;;;;;32.10;26.48;;;10.80;99.90;;;;;;4940412;28;20058;-89
2022/10/13 07:09:07;;;;;;;32.88;26.02;;;10.90;99.90;;;;;;4934756;29;20047;-89
2022/10/13 07:11:35;;;;;;;31.23;26.02;;;10.80;99.90;;;;;;4944064;28;20059;-90
2022/10/13 07:14:01;;;;;;;32.75;26.58;;;10.80;99.90;;;;;;4936857;29;20039;-91
2022/10/13 07:16:26;;;;;;;37.80;28.00;;;10.80;99.90;;;;;;4926525;29;20046;-91
2022/10/13 07:18:52;;;;;;;35.00;28.15;;;10.80;99.90;;;;;;4943601;29;20075;-91
2022/10/13 07:21:18;;;;;;;35.78;28.13;;;10.80;99.90;;;;;;4939570;28;20054;-89
2022/10/13 07:23:44;;;;;;;36.08;27.10;;;10.80;99.90;;;;;;4943643;28;20127;-91
2022/10/13 07:26:13;;;;;;;34.95;27.73;;;10.80;99.90;;;;;;4936772;29;20050;-92
2022/10/13 07:28:39;;;;;;;33.58;26.45;;;10.90;99.90;;;;;;4929083;29;20058;-91
2022/10/13 07:31:14;;;;;;;33.33;26.67;;;10.90;99.90;;;;;;4942273;28;20035;-92
2022/10/13 07:33:42;;;;;;;31.85;26.38;;;10.90;99.90;;;;;;4944662;28;20055;-93
2022/10/13 07:36:08;;;;;;;31.58;26.25;;;11.00;99.90;;;;;;4944906;28;20047;-91
2022/10/13 07:38:35;;;;;;;33.63;25.77;;;11.00;99.90;;;;;;4938854;29;20035;-92
2022/10/13 07:41:02;;;;;;;33.80;26.38;;;11.00;99.90;;;;;;4947162;29;20036;-92
2022/10/13 07:43:28;;;;;;;33.35;26.80;;;11.10;99.90;;;;;;4947031;28;20045;-93
2022/10/13 07:45:54;;;;;;;34.97;27.83;;;11.20;99.90;;;;;;4921295;29;20051;-93
2022/10/13 07:48:19;;;;;;;37.10;28.60;;;11.10;99.90;;;;;;4933755;29;20039;-94
2022/10/13 07:50:45;;;;;;;34.55;26.77;;;11.20;99.90;;;;;;4929881;29;20043;-94
2022/10/13 07:53:10;;;;;;;32.60;26.58;;;11.20;99.90;;;;;;4953721;29;20054;-95
2022/10/13 07:55:36;;;;;;;36.22;28.73;;;11.30;99.90;;;;;;4957613;28;20050;-94
2022/10/13 07:58:03;;;;;;;34.75;28.42;;;11.30;99.90;;;;;;4961850;28;20064;-93
2022/10/13 08:00:28;;;;;;;34.80;28.10;;;11.40;99.90;;;;;;4965633;28;20034;-93
2022/10/13 08:02:55;;;;;;;33.15;26.88;;;11.40;99.90;;;;;;4946978;29;20501;-93
2022/10/13 08:05:20;;;;;;;42.72;32.67;;;11.50;99.90;;;;;;4952275;28;20134;-93
2022/10/13 08:07:46;;;;;;;37.85;29.23;;;11.60;99.90;;;;;;4922231;29;20139;-92
2022/10/13 08:10:13;;;;;;;35.42;29.48;;;11.60;99.90;;;;;;4927257;29;20471;-92
2022/10/13 08:12:39;;;;;;;33.25;29.40;;;11.70;99.90;;;;;;4921229;29;20130;-92
2022/10/13 08:15:05;;;;;;;38.92;31.02;;;11.80;99.90;;;;;;4941047;28;20422;-93
2022/10/13 08:17:31;;;;;;;40.97;31.35;;;11.80;99.90;;;;;;4939820;29;20047;-93
2022/10/13 08:19:56;;;;;;;40.17;30.50;;;11.90;99.90;;;;;;4944414;28;20058;-90
2022/10/13 08:22:22;;;;;;;37.88;30.70;;;11.90;99.90;;;;;;4936451;28;20048;-92
2022/10/13 08:24:48;;;;;;;42.33;31.20;;;12.00;99.90;;;;;;4948735;28;20031;-91
2022/10/13 08:27:22;;;;;;;38.55;29.90;;;12.10;99.90;;;;;;4949188;29;20023;-92
2022/10/13 08:29:49;;;;;;;39.97;29.50;;;12.20;99.90;;;;;;4947789;28;20055;-93
2022/10/13 08:32:15;;;;;;;38.47;29.95;;;12.20;99.90;;;;;;4944537;28;20126;-95
2022/10/13 08:34:40;;;;;;;35.38;30.88;;;12.30;99.90;;;;;;4944598;28;20045;-94
2022/10/13 08:37:14;;;;;;;38.15;30.40;;;12.30;99.90;;;;;;4943020;28;20035;-95
2022/10/13 08:39:40;;;;;;;37.35;29.30;;;12.40;99.90;;;;;;4948967;29;20050;-96
2022/10/13 08:42:19;;;;;;;39.15;29.42;;;12.40;99.90;;;;;;4934853;28;20070;-95
2022/10/13 08:45:04;;;;;;;37.80;30.80;;;12.50;99.90;;;;;;4937984;28;20166;-96
2022/10/13 08:47:37;;;;;;;33.80;28.98;;;12.50;99.90;;;;;;4965448;28;20040;-93
2022/10/13 08:50:11;;;;;;;39.17;29.60;;;12.60;99.90;;;;;;4941840;29;20058;-94
2022/10/13 08:53:00;;;;;;;37.10;29.73;;;12.70;99.90;;;;;;4954454;28;20043;-95
2022/10/13 08:55:32;;;;;;;38.35;29.35;;;12.70;99.90;;;;;;4933048;29;20046;-95
2022/10/13 08:57:59;;;;;;;37.65;29.25;;;12.80;99.90;;;;;;4945405;29;20043;-94
2022/10/13 09:00:26;;;;;;;37.97;28.85;;;12.80;99.90;;;;;;4931735;29;20062;-95
2022/10/13 09:02:52;;;;;;;33.63;29.17;;;12.80;99.90;;;;;;4941788;28;20078;-93
2022/10/13 09:05:40;;;;;;;37.95;31.00;;;12.80;99.90;;;;;;4939408;28;20035;-95
2022/10/13 09:08:15;;;;;;;36.15;30.08;;;12.90;99.90;;;;;;4939642;29;20507;-93
2022/10/13 09:10:52;;;;;;;38.65;30.05;;;12.80;99.90;;;;;;4944245;29;20051;-96
2022/10/13 09:13:18;;;;;;;38.40;30.83;;;12.90;99.90;;;;;;4953002;28;20117;-95
2022/10/13 09:15:46;;;;;;;36.75;30.50;;;13.00;99.90;;;;;;4926009;29;20134;-94
2022/10/13 09:18:12;;;;;;;40.17;30.38;;;13.00;99.90;;;;;;4930415;29;20055;-93
2022/10/13 09:20:39;;;;;;;37.45;30.00;;;12.90;99.90;;;;;;4917369;29;20057;-94
2022/10/13 09:23:21;;;;;;;39.95;30.48;;;12.90;99.90;;;;;;4935888;28;20433;-96
2022/10/13 09:25:50;;;;;;;42.08;30.63;;;12.90;99.90;;;;;;4945290;29;20047;-96
2022/10/13 09:28:28;;;;;;;40.55;30.33;;;13.00;99.90;;;;;;4967710;28;20024;-96
2022/10/13 11:50:19;;;;;;;57.08;41.35;;;13.80;99.90;;;;;;2992531;23;20042;-94
2022/10/13 11:53:05;;;;;;;52.55;40.25;;;13.80;99.90;;;;;;4951642;28;20479;-93
2022/10/13 11:55:47;;;;;;;49.10;38.58;;;13.80;99.90;;;;;;4999874;28;20945;-94
2022/10/13 11:58:23;;;;;;;58.50;40.47;;;13.80;99.90;;;;;;4999868;28;20050;-94
2022/10/13 12:01:13;;;;;;;56.20;39.65;;;13.80;99.90;;;;;;4979136;28;20042;-94
2022/10/13 12:03:42;;;;;;;54.97;40.58;;;13.80;99.90;;;;;;4983033;28;20055;-94
2022/10/13 12:06:33;;;;;;;56.30;40.08;;;13.70;99.90;;;;;;4963635;28;20195;-95
2022/10/13 12:09:25;;;;;;;57.42;40.90;;;13.80;99.90;;;;;;4979939;28;20019;-93
2022/10/13 12:12:03;;;;;;;53.78;40.60;;;13.70;99.90;;;;;;4982656;28;20061;-94
2022/10/13 12:14:32;;;;;;;60.17;43.03;;;13.70;99.90;;;;;;4985296;28;20046;-94
2022/10/13 12:16:59;;;;;;;59.47;43.22;;;13.70;99.90;;;;;;4963398;28;20098;-95
2022/10/13 12:19:28;;;;;;;58.97;43.13;;;13.80;99.90;;;;;;4960050;28;20023;-94
2022/10/13 12:21:56;;;;;;;52.88;40.80;;;13.80;99.90;;;;;;4953304;28;20042;-93
2022/10/13 12:24:24;;;;;;;60.53;42.45;;;13.80;99.90;;;;;;4961411;28;20419;-94
2022/10/13 12:26:51;;;;;;;88.93;48.10;;;13.80;99.90;;;;;;4964099;28;20046;-95
2022/10/13 12:29:18;;;;;;;58.15;42.33;;;13.80;99.90;;;;;;4972644;28;20038;-94
2022/10/13 12:31:47;;;;;;;66.70;44.70;;;13.80;99.90;;;;;;4962552;28;20046;-94
2022/10/13 12:34:33;;;;;;;62.90;44.03;;;13.90;99.90;;;;;;4958761;28;20039;-93
2022/10/13 12:37:12;;;;;;;65.15;44.33;;;13.90;99.90;;;;;;4959628;28;20162;-94
2022/10/13 12:39:38;;;;;;;63.25;42.40;;;13.90;99.90;;;;;;4976749;28;20039;-93
2022/10/13 12:42:09;;;;;;;63.72;44.75;;;13.90;99.90;;;;;;4976773;28;20065;-93
2022/10/13 12:44:34;;;;;;;57.10;43.03;;;13.90;99.90;;;;;;4980084;28;20129;-93
2022/10/13 12:47:02;;;;;;;59.40;43.47;;;13.90;99.90;;;;;;4968412;28;20388;-93
2022/10/13 12:49:31;;;;;;;61.30;44.38;;;13.90;99.90;;;;;;4971513;28;20065;-93
2022/10/13 12:52:04;;;;;;;69.38;44.85;;;13.90;99.90;;;;;;4987682;28;20109;-91
2022/10/13 12:54:33;;;;;;;55.17;40.95;;;13.90;99.90;;;;;;4963702;28;20046;-91
2022/10/13 12:57:02;;;;;;;51.35;40.80;;;13.90;99.90;;;;;;4972354;28;20042;-93
2022/10/13 12:59:29;;;;;;;62.67;43.67;;;14.00;99.90;;;;;;4983362;28;20042;-91
2022/10/13 13:02:01;;;;;;;55.63;42.03;;;14.10;99.90;;;;;;4984989;28;20518;-91
2022/10/13 13:04:37;;;;;;;60.42;42.33;;;14.00;99.90;;;;;;4958998;28;20054;-92
2022/10/13 13:07:05;;;;;;;49.45;39.58;;;14.10;99.90;;;;;;4979193;28;20932;-92
2022/10/13 13:09:33;;;;;;;49.63;39.45;;;14.10;99.90;;;;;;4971932;28;20093;-92
2022/10/13 13:12:04;;;;;;;55.13;41.38;;;14.10;99.90;;;;;;4989781;28;20026;-93
2022/10/13 13:14:48;;;;;;;56.80;40.83;;;14.10;99.90;;;;;;4983720;28;20053;-92
2022/10/13 13:17:17;;;;;;;59.60;41.20;;;14.20;99.90;;;;;;4961622;28;20554;-93
2022/10/13 13:19:45;;;;;;;48.75;37.80;;;14.20;99.90;;;;;;4967111;28;20105;-93
2022/10/13 13:22:11;;;;;;;45.97;37.60;;;14.30;99.90;;;;;;4959690;28;20073;-92
2022/10/13 13:24:37;;;;;;;46.38;36.22;;;14.30;99.90;;;;;;4963829;28;20117;-93
2022/10/13 13:27:21;;;;;;;43.72;34.45;;;14.40;99.90;;;;;;4965804;28;20134;-94
2022/10/13 13:29:47;;;;;;;40.38;33.60;;;14.40;99.90;;;;;;4959154;28;20039;-92
2022/10/13 13:32:15;;;;;;;44.92;35.25;;;14.40;99.90;;;;;;4980836;28;20074;-93
2022/10/13 13:34:41;;;;;;;45.13;35.72;;;14.50;99.90;;;;;;4978457;28;20054;-93
2022/10/13 13:37:28;;;;;;;43.38;34.50;;;14.50;99.90;;;;;;4963054;28;20034;-94
2022/10/13 13:39:53;;;;;;;42.10;33.08;;;14.40;99.90;;;;;;4970552;28;20046;-93
2022/10/13 13:42:19;;;;;;;36.88;31.58;;;14.40;99.90;;;;;;4984251;28;20081;-94
2022/10/13 13:44:45;;;;;;;35.78;31.08;;;14.30;99.90;;;;;;4953695;28;20043;-93
2022/10/13 13:47:19;;;;;;;36.38;29.83;;;14.30;99.90;;;;;;4985117;28;20035;-95
2022/10/13 13:49:46;;;;;;;36.30;29.15;;;14.30;99.90;;;;;;4978564;28;20125;-93
2022/10/13 13:52:12;;;;;;;27.25;23.63;;;14.30;99.90;;;;;;4971768;28;20053;-93
2022/10/13 13:54:37;;;;;;;28.25;23.83;;;14.20;99.90;;;;;;4963115;28;20038;-92
2022/10/13 13:57:03;;;;;;;25.08;22.10;;;14.10;99.90;;;;;;4986468;28;20161;-94
2022/10/13 13:59:29;;;;;;;24.17;19.95;;;14.10;99.90;;;;;;4972578;28;20482;-93
2022/10/13 14:01:54;;;;;;;23.33;20.23;;;14.00;99.90;;;;;;4972172;28;20042;-93
2022/10/13 14:04:20;;;;;;;25.58;20.70;;;13.90;99.90;;;;;;4958855;28;20104;-92
2022/10/13 14:06:46;;;;;;;28.98;22.30;;;13.90;99.90;;;;;;4962326;28;20049;-94
2022/10/13 14:09:11;;;;;;;25.25;20.80;;;13.90;99.90;;;;;;4958682;28;20133;-94
2022/10/13 14:11:37;;;;;;;25.17;21.17;;;13.80;99.90;;;;;;4966639;28;20046;-93
2022/10/13 14:14:02;;;;;;;28.92;23.17;;;13.80;99.90;;;;;;4958519;28;20660;-93
2022/10/13 14:16:28;;;;;;;28.55;23.45;;;13.80;99.90;;;;;;4973413;28;20097;-93
2022/10/13 14:18:55;;;;;;;30.13;24.15;;;13.80;99.90;;;;;;4986980;28;20045;-92
2022/10/13 14:21:21;;;;;;;29.15;23.70;;;13.80;99.90;;;;;;4964273;28;20676;-92
2022/10/13 14:23:47;;;;;;;26.55;23.33;;;13.80;99.90;;;;;;4959239;28;20045;-93
2022/10/13 14:26:13;;;;;;;27.48;23.23;;;13.80;99.90;;;;;;4977711;28;20046;-92
2022/10/13 14:28:43;;;;;;;28.73;23.33;;;13.70;99.90;;;;;;4981611;28;20073;-93
2022/10/13 14:31:09;;;;;;;30.42;25.02;;;13.70;99.90;;;;;;4979805;28;20585;-93
2022/10/13 14:33:36;;;;;;;28.90;23.88;;;13.70;99.90;;;;;;4962565;28;20052;-92
2022/10/13 14:36:02;;;;;;;29.20;22.85;;;13.70;99.90;;;;;;4966903;28;20126;-93
2022/10/13 14:38:28;;;;;;;30.75;23.98;;;13.70;99.90;;;;;;4970259;28;20066;-91
2022/10/13 14:41:01;;;;;;;31.25;24.77;;;13.80;99.90;;;;;;4976884;28;20031;-92
2022/10/13 14:43:27;;;;;;;27.15;22.02;;;13.80;99.90;;;;;;4979526;28;20053;-92
2022/10/13 14:45:54;;;;;;;27.23;21.05;;;13.80;99.90;;;;;;4981383;28;20045;-93
2022/10/13 14:48:19;;;;;;;27.27;21.55;;;13.90;99.90;;;;;;4961454;28;20065;-92
2022/10/13 14:50:45;;;;;;;28.52;20.35;;;13.90;99.90;;;;;;4973810;28;20058;-91
2022/10/13 14:53:14;;;;;;;27.27;20.83;;;13.90;99.90;;;;;;4978001;28;20069;-91
2022/10/13 14:55:41;;;;;;;25.98;20.15;;;13.90;99.90;;;;;;4983522;28;20447;-92
2022/10/13 14:58:08;;;;;;;21.42;16.60;;;13.90;99.90;;;;;;4961678;28;20089;-92